Ship Status Report: callsign 8TAP

sailwx.info

Track history (hours):
 
Tides and Currents Weather Stations Pressure Air Temp Water Temp Dewpoint Dewpoint Depression Visibility Wind Speed Wind Dir Waves Ship Positions

Callsign 8TAP (name unknown)

Last reported at 2018-Apr-15 06:09 UTC. Time now 2018-May-25 18:42 UTC.
Position N 17°42' E 083°18'.
Warning: this ship's position is 40 days out of date.

Barometer 973.0 mb
Air temperature 37.9 ° C

Date/timePositionNaut miles runAvg speedWind from/ knotsBaromVisibWave heightAir tempDewpointWater temp
2018-Apr-15 06:09N 17°42' E 083°18'0 0.0 973.0 37.9
2018-Apr-15 03:09N 17°42' E 083°18'0 0.0 1011.4 35.7
2018-Apr-15 00:09N 17°42' E 083°18'0 0.0 1010.2 29.6
2018-Apr-14 21:09N 17°42' E 083°18'0 0.0 1010.5 29.5
2018-Apr-14 18:09N 17°42' E 083°18'0 0.0 1011.3 30.1
2018-Apr-14 15:09N 17°42' E 083°18'0 0.0 1009.3 30.4
2018-Apr-14 12:09N 17°42' E 083°18'0 0.0 1006.4 33.4
2018-Apr-14 09:09N 17°42' E 083°18'0 0.0 1007.6 35.1
2018-Apr-14 03:09N 17°42' E 083°18'0 0.0 988.8 37.5
2018-Apr-14 00:09N 17°42' E 083°18'0 0.0 210 1009.4 28.1
2018-Apr-13 21:09N 17°42' E 083°18'0 0.0 1009.0 28.4
2018-Apr-13 18:09N 17°42' E 083°18'0 0.0 1011.1 29.1
2018-Apr-13 15:09N 17°42' E 083°18'0 0.0 1010.9 29.7
2018-Apr-13 12:09N 17°42' E 083°18'0 0.0 1008.3 32.6
2018-Apr-13 09:09N 17°42' E 083°18'0 0.0 1008.5 35.9
2018-Apr-13 06:09N 17°42' E 083°18'0 0.0 1011.4 37.0
2018-Apr-13 00:09N 17°42' E 083°18'0 0.0 1009.9 27.0
2018-Apr-12 21:09N 17°42' E 083°18'0 0.0 1009.5 27.9
2018-Apr-12 18:09N 17°42' E 083°18'0 0.0 1011.0 29.1
2018-Apr-12 15:09N 17°42' E 083°18'0 0.0 1010.8 30.0
2018-Apr-12 12:09N 17°42' E 083°18'0 0.0 1007.6 31.2
2018-Apr-12 09:09N 17°42' E 083°18'0 0.0 1006.9 34.7
2018-Apr-12 06:09N 17°42' E 083°18'0 0.0 1010.5 36.5
2018-Apr-12 03:09N 17°42' E 083°18'0 0.0 1011.2 36.4
2018-Apr-12 00:09N 17°42' E 083°18'0 0.0 1009.3 27.5
2018-Apr-11 21:09N 17°42' E 083°18'0 0.0 1008.5 27.9
2018-Apr-11 18:09N 17°42' E 083°18'0 0.0 1010.0 28.5
2018-Apr-11 15:09N 17°42' E 083°18'0 0.0 1010.1 29.4
2018-Apr-11 12:09N 17°42' E 083°18'0 0.0 1008.4 32.8
2018-Apr-11 09:09N 17°42' E 083°18'0 0.0 1008.9 35.4
2018-Apr-11 06:09N 17°42' E 083°18'0 0.0 120 1011.9 36.2
2018-Apr-11 03:09N 17°42' E 083°18'0 0.0 1012.9 34.7
2018-Apr-11 00:09N 17°42' E 083°18'0 0.0 1010.3 25.9
2018-Apr-10 21:09N 17°42' E 083°18'0 0.0 1009.9 26.7
2018-Apr-10 15:09N 17°42' E 083°18'0 0.0 1010.9 28.8
2018-Apr-10 12:09N 17°42' E 083°18'0 0.0 290 1008.5 32.8
2018-Apr-10 09:09N 17°42' E 083°18'0 0.0 340 1008.2 34.7
2018-Apr-10 05:39N 17°42' E 083°18'0 0.0 240 1011.9 34.5
2018-Apr-10 03:09N 17°42' E 083°18'0 0.0 1012.9 35.2
2018-Apr-10 00:09N 17°42' E 083°18'0 0.0 1011.5 25.4
2018-Apr-09 21:09N 17°42' E 083°18'0 0.0 060 1010.6 25.5
2018-Apr-09 18:09N 17°42' E 083°18'0 0.0 1012.4 25.8
2018-Apr-09 15:09N 17°42' E 083°18'0 0.0 180 1012.1 29.3
2018-Apr-09 12:09N 17°42' E 083°18'0 0.0 1009.0 31.6
2018-Apr-09 09:09N 17°42' E 083°18'0 0.0 250 1009.7 35.4
2018-Apr-09 03:09N 17°42' E 083°18'0 0.0 210 1014.3 33.3
2018-Apr-08 21:09N 17°42' E 083°18'0 0.0 1011.5 27.3
2018-Apr-08 18:09N 17°42' E 083°18'0 0.0 1012.3 28.0
2018-Apr-08 12:09N 17°42' E 083°18'0 0.0 190 1009.6 32.9
2018-Apr-08 09:09N 17°42' E 083°18'0 0.0 1010.2 36.1
2018-Apr-08 06:09N 17°42' E 083°18'0 0.0 1014.0 36.7
2018-Apr-08 03:09N 17°42' E 083°18'0 0.0 1014.3 34.1
2018-Apr-08 00:09N 17°42' E 083°18'0 0.0 1011.0 24.3
2018-Apr-07 21:09N 17°42' E 083°18'0 0.0 1009.3 25.1
2018-Apr-07 18:09N 17°42' E 083°18'0 0.0 1013.3 24.8
2018-Apr-07 15:09N 17°42' E 083°18'0 0.0 1011.5 25.3
2018-Apr-07 12:09N 17°42' E 083°18'0 0.0 1007.1 32.4
2018-Apr-07 09:09N 17°42' E 083°18'0 0.0 1007.3 36.3
2018-Apr-06 18:09N 17°42' E 083°18'0 0.0 1010.0 28.9
2018-Apr-06 15:09N 17°42' E 083°18'0 0.0 1009.6 29.5
2018-Apr-06 12:09N 17°42' E 083°18'0 0.0 1006.6 32.4
2018-Apr-06 09:09N 17°42' E 083°18'0 0.0 1006.8 36.1
2018-Apr-06 06:09N 17°42' E 083°18'0 0.0 1009.5 37.0
2018-Apr-06 03:09N 17°42' E 083°18'0 0.0 1010.7 34.5
2018-Apr-06 00:09N 17°42' E 083°18'0 0.0 1008.5 27.0
2018-Apr-05 21:09N 17°42' E 083°18'0 0.0 1007.1 28.0
2018-Apr-05 18:09N 17°42' E 083°18'0 0.0 1008.4 29.0
2018-Apr-05 15:09N 17°42' E 083°18'0 0.0 1007.6 29.5
2018-Apr-05 12:09N 17°42' E 083°18'0 0.0 1005.3 32.4
2018-Apr-05 09:09N 17°42' E 083°18'0 0.0 1005.5 36.1
2018-Apr-05 06:09N 17°42' E 083°18'   996.3 37.2
Track history (hours):
 
Tides and Currents Weather Stations Pressure Air Temp Water Temp Dewpoint Dewpoint Depression Visibility Wind Speed Wind Dir Waves Ship Positions

Callsign 8TAP (name unknown)

Last reported at 2018-Apr-15 06:09 UTC. Time now 2018-May-25 18:42 UTC.
Position N 17°42' E 083°18'.
Warning: this ship's position is 40 days out of date.

Barometer 973.0 mb
Air temperature 37.9 ° C

Date/timePositionNaut miles runAvg speedWind from/ knotsBaromVisibWave heightAir tempDewpointWater temp
2018-Apr-15 06:09N 17°42' E 083°18'0 0.0 973.0 37.9
2018-Apr-15 03:09N 17°42' E 083°18'0 0.0 1011.4 35.7
2018-Apr-15 00:09N 17°42' E 083°18'0 0.0 1010.2 29.6
2018-Apr-14 21:09N 17°42' E 083°18'0 0.0 1010.5 29.5
2018-Apr-14 18:09N 17°42' E 083°18'0 0.0 1011.3 30.1
2018-Apr-14 15:09N 17°42' E 083°18'0 0.0 1009.3 30.4
2018-Apr-14 12:09N 17°42' E 083°18'0 0.0 1006.4 33.4
2018-Apr-14 09:09N 17°42' E 083°18'0 0.0 1007.6 35.1
2018-Apr-14 03:09N 17°42' E 083°18'0 0.0 988.8 37.5
2018-Apr-14 00:09N 17°42' E 083°18'0 0.0 210 1009.4 28.1
2018-Apr-13 21:09N 17°42' E 083°18'0 0.0 1009.0 28.4
2018-Apr-13 18:09N 17°42' E 083°18'0 0.0 1011.1 29.1
2018-Apr-13 15:09N 17°42' E 083°18'0 0.0 1010.9 29.7
2018-Apr-13 12:09N 17°42' E 083°18'0 0.0 1008.3 32.6
2018-Apr-13 09:09N 17°42' E 083°18'0 0.0 1008.5 35.9
2018-Apr-13 06:09N 17°42' E 083°18'0 0.0 1011.4 37.0
2018-Apr-13 00:09N 17°42' E 083°18'0 0.0 1009.9 27.0
2018-Apr-12 21:09N 17°42' E 083°18'0 0.0 1009.5 27.9
2018-Apr-12 18:09N 17°42' E 083°18'0 0.0 1011.0 29.1
2018-Apr-12 15:09N 17°42' E 083°18'0 0.0 1010.8 30.0
2018-Apr-12 12:09N 17°42' E 083°18'0 0.0 1007.6 31.2
2018-Apr-12 09:09N 17°42' E 083°18'0 0.0 1006.9 34.7
2018-Apr-12 06:09N 17°42' E 083°18'0 0.0 1010.5 36.5
2018-Apr-12 03:09N 17°42' E 083°18'0 0.0 1011.2 36.4
2018-Apr-12 00:09N 17°42' E 083°18'0 0.0 1009.3 27.5
2018-Apr-11 21:09N 17°42' E 083°18'0 0.0 1008.5 27.9
2018-Apr-11 18:09N 17°42' E 083°18'0 0.0 1010.0 28.5
2018-Apr-11 15:09N 17°42' E 083°18'0 0.0 1010.1 29.4
2018-Apr-11 12:09N 17°42' E 083°18'0 0.0 1008.4 32.8
2018-Apr-11 09:09N 17°42' E 083°18'0 0.0 1008.9 35.4
2018-Apr-11 06:09N 17°42' E 083°18'0 0.0 120 1011.9 36.2
2018-Apr-11 03:09N 17°42' E 083°18'0 0.0 1012.9 34.7
2018-Apr-11 00:09N 17°42' E 083°18'0 0.0 1010.3 25.9
2018-Apr-10 21:09N 17°42' E 083°18'0 0.0 1009.9 26.7
2018-Apr-10 15:09N 17°42' E 083°18'0 0.0 1010.9 28.8
2018-Apr-10 12:09N 17°42' E 083°18'0 0.0 290 1008.5 32.8
2018-Apr-10 09:09N 17°42' E 083°18'0 0.0 340 1008.2 34.7
2018-Apr-10 05:39N 17°42' E 083°18'0 0.0 240 1011.9 34.5
2018-Apr-10 03:09N 17°42' E 083°18'0 0.0 1012.9 35.2
2018-Apr-10 00:09N 17°42' E 083°18'0 0.0 1011.5 25.4
2018-Apr-09 21:09N 17°42' E 083°18'0 0.0 060 1010.6 25.5
2018-Apr-09 18:09N 17°42' E 083°18'0 0.0 1012.4 25.8
2018-Apr-09 15:09N 17°42' E 083°18'0 0.0 180 1012.1 29.3
2018-Apr-09 12:09N 17°42' E 083°18'0 0.0 1009.0 31.6
2018-Apr-09 09:09N 17°42' E 083°18'0 0.0 250 1009.7 35.4
2018-Apr-09 03:09N 17°42' E 083°18'0 0.0 210 1014.3 33.3
2018-Apr-08 21:09N 17°42' E 083°18'0 0.0 1011.5 27.3
2018-Apr-08 18:09N 17°42' E 083°18'0 0.0 1012.3 28.0
2018-Apr-08 12:09N 17°42' E 083°18'0 0.0 190 1009.6 32.9
2018-Apr-08 09:09N 17°42' E 083°18'0 0.0 1010.2 36.1
2018-Apr-08 06:09N 17°42' E 083°18'0 0.0 1014.0 36.7
2018-Apr-08 03:09N 17°42' E 083°18'0 0.0 1014.3 34.1
2018-Apr-08 00:09N 17°42' E 083°18'0 0.0 1011.0 24.3
2018-Apr-07 21:09N 17°42' E 083°18'0 0.0 1009.3 25.1
2018-Apr-07 18:09N 17°42' E 083°18'0 0.0 1013.3 24.8
2018-Apr-07 15:09N 17°42' E 083°18'0 0.0 1011.5 25.3
2018-Apr-07 12:09N 17°42' E 083°18'0 0.0 1007.1 32.4
2018-Apr-07 09:09N 17°42' E 083°18'0 0.0 1007.3 36.3
2018-Apr-06 18:09N 17°42' E 083°18'0 0.0 1010.0 28.9
2018-Apr-06 15:09N 17°42' E 083°18'0 0.0 1009.6 29.5
2018-Apr-06 12:09N 17°42' E 083°18'0 0.0 1006.6 32.4
2018-Apr-06 09:09N 17°42' E 083°18'0 0.0 1006.8 36.1
2018-Apr-06 06:09N 17°42' E 083°18'0 0.0 1009.5 37.0
2018-Apr-06 03:09N 17°42' E 083°18'0 0.0 1010.7 34.5
2018-Apr-06 00:09N 17°42' E 083°18'0 0.0 1008.5 27.0
2018-Apr-05 21:09N 17°42' E 083°18'0 0.0 1007.1 28.0
2018-Apr-05 18:09N 17°42' E 083°18'0 0.0 1008.4 29.0
2018-Apr-05 15:09N 17°42' E 083°18'0 0.0 1007.6 29.5
2018-Apr-05 12:09N 17°42' E 083°18'0 0.0 1005.3 32.4
2018-Apr-05 09:09N 17°42' E 083°18'0 0.0 1005.5 36.1
2018-Apr-05 06:09N 17°42' E 083°18'   996.3 37.2

Dump ship's entire track history